Time;durP1;ratioP1;P1;durP2;ratioP2;P2;SDS_P1;SDS_P2;PMS_P1;PMS_P2;Temp;Humidity;BMP_temperature;BMP_pressure;BME280_temperature;BME280_humidity;BME280_pressure;Samples;Min_cycle;Max_cycle;Signal;HPM_P1;HPM_P2
2021/08/10 12:08:16;;;;;;;3.93;3.40;;;26.20;92.30;;;;;;6258403;22;20444;-89
2021/08/10 12:10:46;;;;;;;3.10;2.80;;;25.60;92.40;;;;;;6245299;22;20440;-88
2021/08/10 12:13:23;;;;;;;4.40;3.20;;;25.60;91.50;;;;;;6243921;22;20225;-87
2021/08/10 12:15:50;;;;;;;3.70;2.70;;;25.90;92.30;;;;;;6247232;22;20488;-89
2021/08/10 12:18:19;;;;;;;3.83;2.60;;;26.20;92.10;;;;;;6245589;22;20415;-88
2021/08/10 12:21:02;;;;;;;3.23;2.67;;;25.80;92.50;;;;;;6241281;22;20432;-88
2021/08/10 12:23:38;;;;;;;2.77;2.57;;;25.80;92.60;;;;;;6242224;22;20581;-86
2021/08/10 12:26:22;;;;;;;2.57;2.37;;;26.20;93.00;;;;;;6244026;22;20397;-88
2021/08/10 12:29:04;;;;;;;4.43;2.90;;;26.80;92.50;;;;;;6243585;22;20479;-88
2021/08/10 12:31:30;;;;;;;2.93;2.73;;;27.00;91.20;;;;;;6238693;22;20409;-86
2021/08/10 12:33:58;;;;;;;2.83;2.50;;;27.10;92.20;;;;;;6240672;22;20798;-87
2021/08/10 12:36:25;;;;;;;3.63;2.90;;;27.50;91.50;;;;;;6242241;22;20397;-88
2021/08/10 12:38:52;;;;;;;2.93;2.73;;;27.80;90.00;;;;;;6242718;22;20404;-87
2021/08/10 12:41:23;;;;;;;3.00;2.70;;;26.60;90.90;;;;;;6241510;22;20405;-87
2021/08/10 12:43:50;;;;;;;3.20;2.90;;;26.00;91.70;;;;;;6242567;22;20389;-88
2021/08/10 12:46:35;;;;;;;2.60;2.30;;;26.40;93.00;;;;;;6240033;22;20393;-87
2021/08/10 12:49:12;;;;;;;2.77;2.57;;;26.60;90.90;;;;;;6240301;22;20466;-88
2021/08/10 12:52:01;;;;;;;3.27;3.03;;;26.50;90.50;;;;;;6241930;22;20459;-87
2021/08/10 12:54:38;;;;;;;3.50;3.13;;;26.60;90.30;;;;;;6241590;22;20444;-88
2021/08/10 12:57:19;;;;;;;3.20;2.57;;;27.00;91.30;;;;;;6243002;22;20389;-88
2021/08/10 13:00:15;;;;;;;2.80;2.60;;;27.30;90.30;;;;;;6243461;22;20416;-88
2021/08/10 13:02:46;;;;;;;2.57;2.37;;;26.20;90.30;;;;;;6226673;22;20861;-88
2021/08/10 13:05:16;;;;;;;3.47;2.90;;;26.10;91.80;;;;;;6239990;22;20408;-87
2021/08/10 13:08:00;;;;;;;3.13;2.93;;;26.60;91.50;;;;;;6241945;22;20408;-88
2021/08/10 13:10:30;;;;;;;3.20;2.90;;;27.50;90.50;;;;;;6239594;22;20878;-89
2021/08/10 13:12:58;;;;;;;4.43;2.90;;;27.90;89.40;;;;;;6243123;22;20389;-87
2021/08/10 13:15:24;;;;;;;4.60;2.63;;;28.40;89.70;;;;;;6234973;22;20447;-91
2021/08/10 13:17:51;;;;;;;3.33;3.03;;;28.70;88.80;;;;;;6240633;22;20416;-89
2021/08/10 13:20:24;;;;;;;2.93;2.63;;;28.70;88.80;;;;;;6239057;22;20400;-91
2021/08/10 13:22:55;;;;;;;4.20;3.03;;;28.30;85.20;;;;;;6237920;22;20386;-91
2021/08/10 13:25:24;;;;;;;4.40;2.77;;;28.50;86.10;;;;;;6240256;22;20409;-90
2021/08/10 13:28:09;;;;;;;2.93;2.60;;;27.50;88.30;;;;;;6237306;22;20446;-89
2021/08/10 13:30:35;;;;;;;2.83;2.63;;;26.60;89.60;;;;;;6248874;22;20393;-89
2021/08/10 13:33:23;;;;;;;3.10;2.80;;;26.70;91.80;;;;;;6240987;22;20890;-90
2021/08/10 13:35:50;;;;;;;4.60;2.70;;;27.50;88.60;;;;;;6238739;22;20190;-90
2021/08/10 13:38:22;;;;;;;2.90;2.60;;;27.90;85.60;;;;;;6241325;22;20408;-96
2021/08/10 13:40:55;;;;;;;7.43;3.53;;;27.90;88.70;;;;;;6237552;22;20480;-92
2021/08/10 13:43:22;;;;;;;3.23;2.93;;;28.60;86.70;;;;;;6230746;22;20621;-89
2021/08/10 13:45:51;;;;;;;2.70;2.50;;;28.30;86.20;;;;;;6198172;22;20432;-90
2021/08/10 13:48:17;;;;;;;3.03;2.83;;;28.30;86.80;;;;;;6253329;22;20917;-91
2021/08/10 13:50:49;;;;;;;3.00;2.70;;;28.50;87.00;;;;;;6206378;22;20413;-90
2021/08/10 13:53:15;;;;;;;3.17;2.97;;;28.30;87.30;;;;;;6224220;22;21173;-86
2021/08/10 13:55:41;;;;;;;3.93;3.50;;;29.60;83.90;;;;;;6228713;22;20944;-87
2021/08/10 13:58:06;;;;;;;2.60;2.40;;;31.60;77.60;;;;;;6227281;22;20432;-86
2021/08/10 14:00:32;;;;;;;4.97;2.43;;;32.80;70.20;;;;;;6228091;22;20188;-85
2021/08/10 14:03:04;;;;;;;2.90;2.60;;;34.10;68.90;;;;;;6225106;22;20162;-87
2021/08/10 14:05:31;;;;;;;3.20;2.90;;;34.00;71.20;;;;;;6229901;22;20182;-87
2021/08/10 14:07:59;;;;;;;3.87;3.17;;;36.80;62.30;;;;;;6229212;22;20435;-89
2021/08/10 14:10:28;;;;;;;3.53;2.70;;;39.10;54.50;;;;;;6226004;22;20400;-89
2021/08/10 14:12:54;;;;;;;3.20;2.93;;;38.40;55.20;;;;;;6253120;22;20629;-89
2021/08/10 14:23:21;;;;;;;3.20;2.90;;;37.70;50.80;;;;;;6227735;22;20197;-86
2021/08/10 14:25:47;;;;;;;3.07;2.87;;;34.40;52.00;;;;;;6200564;23;20440;-86
2021/08/10 14:28:13;;;;;;;3.50;3.03;;;35.40;52.50;;;;;;6199447;23;20447;-87
2021/08/10 14:30:39;;;;;;;3.67;2.73;;;35.80;52.60;;;;;;6199956;23;20162;-88
2021/08/10 14:33:05;;;;;;;3.13;2.83;;;36.50;52.00;;;;;;6201239;23;20177;-88
2021/08/10 14:35:33;;;;;;;5.40;3.07;;;36.40;52.50;;;;;;6204555;23;21222;-96
2021/08/10 14:38:00;;;;;;;4.10;2.87;;;37.60;51.10;;;;;;6234929;23;20173;-94
2021/08/10 14:40:30;;;;;;;2.80;2.60;;;38.40;47.80;;;;;;6238564;23;20233;-96
2021/08/10 14:45:45;;;;;;;3.13;2.80;;;35.50;52.20;;;;;;6256098;23;20201;-96
2021/08/10 14:51:22;;;;;;;3.47;2.93;;;31.20;57.20;;;;;;6240535;23;20814;-96
2021/08/10 14:53:49;;;;;;;3.63;2.70;;;28.40;65.80;;;;;;6250477;22;20466;-95
2021/08/10 14:56:15;;;;;;;3.70;3.40;;;27.90;67.40;;;;;;6291038;22;20442;-84
2021/08/10 14:58:45;;;;;;;3.20;2.80;;;28.20;68.60;;;;;;6288839;22;20436;-84
2021/08/10 15:01:11;;;;;;;3.47;3.17;;;28.50;68.90;;;;;;6285936;22;20643;-84
2021/08/10 15:03:36;;;;;;;3.37;3.07;;;29.00;69.00;;;;;;6288926;22;20406;-84
2021/08/10 15:06:02;;;;;;;4.40;3.00;;;28.80;68.40;;;;;;6289632;22;20282;-84
2021/08/10 15:08:28;;;;;;;3.97;3.20;;;29.40;69.10;;;;;;6287553;22;20480;-84
2021/08/10 15:10:53;;;;;;;3.30;2.57;;;29.90;66.00;;;;;;6285927;22;20172;-84
2021/08/10 15:13:19;;;;;;;3.03;2.70;;;30.20;66.10;;;;;;6285907;22;20170;-84
2021/08/10 15:15:46;;;;;;;3.40;3.10;;;30.10;66.70;;;;;;6286650;22;20189;-85
2021/08/10 15:18:13;;;;;;;6.23;3.13;;;29.30;67.30;;;;;;6260898;22;20165;-85
2021/08/10 15:20:39;;;;;;;3.70;2.63;;;28.90;68.50;;;;;;6260417;22;20404;-85
2021/08/10 15:23:05;;;;;;;3.20;2.90;;;28.70;68.30;;;;;;6289750;22;20402;-84
2021/08/10 15:25:31;;;;;;;4.97;3.50;;;27.70;70.50;;;;;;6261234;22;20197;-83
2021/08/10 15:27:57;;;;;;;3.93;2.90;;;27.40;73.90;;;;;;6289493;22;20900;-84
2021/08/10 15:30:23;;;;;;;3.00;2.60;;;27.30;74.00;;;;;;6260731;22;20322;-85
2021/08/10 15:35:36;;;;;;;3.43;2.20;;;29.30;68.80;;;;;;6281434;22;20695;-84
2021/08/10 15:38:03;;;;;;;2.80;2.60;;;30.40;65.30;;;;;;6296224;22;20388;-84
2021/08/10 15:40:29;;;;;;;4.50;2.80;;;30.80;63.50;;;;;;6293461;22;20639;-85
2021/08/10 15:42:54;;;;;;;3.17;2.97;;;29.50;64.80;;;;;;6260658;22;20477;-82
2021/08/10 15:45:23;;;;;;;3.33;3.00;;;29.20;66.90;;;;;;6263549;22;20565;-84
2021/08/10 15:47:50;;;;;;;3.00;2.70;;;30.10;65.20;;;;;;6291117;22;20393;-82
2021/08/10 15:50:19;;;;;;;4.27;3.47;;;30.10;63.60;;;;;;6287673;22;20423;-84
2021/08/10 15:53:05;;;;;;;3.80;2.77;;;30.50;62.00;;;;;;6292098;22;20399;-84
2021/08/10 15:55:34;;;;;;;3.30;3.00;;;33.70;59.20;;;;;;6264059;22;20697;-84
2021/08/10 15:58:01;;;;;;;2.77;2.57;;;35.60;53.60;;;;;;6261014;22;20410;-83
2021/08/10 16:00:46;;;;;;;6.00;3.37;;;33.40;57.00;;;;;;6287024;22;20482;-84
2021/08/10 16:03:12;;;;;;;3.70;2.80;;;36.00;54.80;;;;;;6288568;22;20416;-84
2021/08/10 16:06:00;;;;;;;4.43;3.27;;;35.30;52.50;;;;;;6265256;22;20539;-84
2021/08/10 16:08:47;;;;;;;4.47;2.67;;;31.30;58.20;;;;;;6263416;22;20400;-84
2021/08/10 16:11:12;;;;;;;3.83;3.27;;;32.30;57.60;;;;;;6260370;22;20499;-84
2021/08/10 16:13:44;;;;;;;2.90;2.60;;;34.20;57.90;;;;;;6289401;22;20380;-84
2021/08/10 16:16:10;;;;;;;2.93;2.67;;;36.70;52.60;;;;;;6236780;22;20669;-84
2021/08/10 16:18:36;;;;;;;3.83;2.60;;;37.40;50.00;;;;;;6286314;22;20482;-86
2021/08/10 16:21:02;;;;;;;3.03;2.80;;;37.00;49.00;;;;;;6290105;22;20161;-83
2021/08/10 16:23:27;;;;;;;3.47;2.70;;;38.70;47.30;;;;;;6287626;22;20165;-84
2021/08/10 16:25:53;;;;;;;3.70;2.90;;;38.90;46.20;;;;;;6286960;22;20635;-84
2021/08/10 16:28:21;;;;;;;6.63;3.20;;;39.50;45.90;;;;;;6292146;22;20157;-83
2021/08/10 16:30:50;;;;;;;2.60;2.40;;;38.70;44.40;;;;;;6218966;22;20169;-84
2021/08/10 16:33:17;;;;;;;5.03;3.23;;;37.30;47.10;;;;;;6289963;22;20725;-83
2021/08/10 16:35:45;;;;;;;3.87;2.60;;;36.50;47.70;;;;;;6240108;22;20218;-82
2021/08/10 16:38:11;;;;;;;3.47;3.17;;;35.30;49.30;;;;;;6288297;22;20399;-83
2021/08/10 16:40:39;;;;;;;4.50;3.10;;;35.40;50.30;;;;;;6290200;22;20399;-83
2021/08/10 16:43:08;;;;;;;3.33;3.00;;;34.60;51.30;;;;;;6291122;22;20776;-82
2021/08/10 16:45:33;;;;;;;3.67;2.73;;;36.00;50.50;;;;;;6293844;22;20504;-82
2021/08/10 16:48:00;;;;;;;3.23;2.70;;;37.60;47.40;;;;;;6292067;22;20920;-83
2021/08/10 16:50:26;;;;;;;3.23;2.80;;;38.20;46.00;;;;;;6240210;22;20254;-83
2021/08/10 16:52:52;;;;;;;3.17;2.60;;;38.40;46.10;;;;;;6265536;22;20241;-82
2021/08/10 16:55:19;;;;;;;3.23;2.93;;;38.90;44.50;;;;;;6291273;22;20165;-83
2021/08/10 16:57:45;;;;;;;3.15;2.95;;;39.10;44.30;;;;;;6293728;22;20164;-82
2021/08/10 17:00:12;;;;;;;3.25;3.00;;;39.20;43.90;;;;;;6288926;22;20614;-83
2021/08/10 17:02:40;;;;;;;4.10;3.17;;;38.40;43.70;;;;;;6238912;22;20172;-83
2021/08/10 17:05:06;;;;;;;5.30;2.60;;;39.00;43.40;;;;;;6289592;22;20197;-84
2021/08/10 17:07:33;;;;;;;6.80;2.83;;;38.80;42.90;;;;;;6262162;22;20161;-88
2021/08/10 17:09:59;;;;;;;2.77;2.57;;;39.00;43.30;;;;;;6260536;22;20720;-82
2021/08/10 17:12:25;;;;;;;3.47;3.17;;;35.90;46.30;;;;;;6293009;22;20165;-82
2021/08/10 17:14:53;;;;;;;3.53;3.23;;;35.40;48.30;;;;;;6290829;22;20500;-82
2021/08/10 17:17:20;;;;;;;3.93;3.00;;;35.50;48.60;;;;;;6286905;22;20161;-82
2021/08/10 17:19:46;;;;;;;3.83;2.67;;;36.00;47.40;;;;;;6289867;22;20168;-82
2021/08/10 17:22:13;;;;;;;3.20;2.90;;;35.60;47.80;;;;;;6291701;22;20191;-83
2021/08/10 17:24:43;;;;;;;3.60;2.97;;;34.30;48.90;;;;;;6288443;22;20883;-82
2021/08/10 17:27:10;;;;;;;3.47;3.17;;;33.20;50.30;;;;;;6291455;22;20676;-83
2021/08/10 17:29:36;;;;;;;6.27;2.70;;;32.80;52.30;;;;;;6289944;22;20388;-82
2021/08/10 17:32:04;;;;;;;3.23;2.97;;;32.10;52.70;;;;;;6265611;22;20276;-84
2021/08/10 17:34:30;;;;;;;3.70;2.87;;;30.50;55.30;;;;;;6261558;22;20400;-84
2021/08/10 17:36:57;;;;;;;3.37;2.93;;;29.30;57.60;;;;;;6289836;22;20533;-83
2021/08/10 17:39:23;;;;;;;3.50;3.10;;;27.90;62.40;;;;;;6263862;22;20252;-82
2021/08/10 17:41:52;;;;;;;2.80;2.60;;;27.00;65.10;;;;;;6264395;22;20454;-83
2021/08/10 17:44:19;;;;;;;3.30;3.00;;;26.50;68.40;;;;;;6289889;22;20189;-82
2021/08/10 17:46:44;;;;;;;4.93;3.40;;;26.10;69.80;;;;;;6263680;22;20412;-83
2021/08/10 17:49:10;;;;;;;4.60;3.30;;;25.60;73.40;;;;;;6291611;22;20769;-83
2021/08/10 17:51:36;;;;;;;3.20;2.90;;;25.10;79.70;;;;;;6292197;22;20194;-82
2021/08/10 17:54:04;;;;;;;3.97;3.57;;;24.60;82.30;;;;;;6289575;22;20487;-83
2021/08/10 17:56:31;;;;;;;3.53;3.00;;;24.30;85.20;;;;;;6288524;22;20469;-83
2021/08/10 17:58:57;;;;;;;6.80;3.37;;;24.00;88.30;;;;;;6264160;22;20491;-83
2021/08/10 18:01:26;;;;;;;4.00;2.97;;;23.70;90.30;;;;;;6290362;22;20376;-82
2021/08/10 18:03:53;;;;;;;5.50;3.40;;;23.50;91.60;;;;;;6264961;22;20851;-83
2021/08/10 18:06:20;;;;;;;7.03;3.77;;;23.30;92.80;;;;;;6290194;22;20407;-82
2021/08/10 18:08:45;;;;;;;3.50;3.07;;;23.20;93.80;;;;;;6287726;22;20388;-82
2021/08/10 18:11:11;;;;;;;6.17;3.40;;;23.00;94.30;;;;;;6289892;22;20545;-82
2021/08/10 18:13:40;;;;;;;6.63;3.57;;;22.90;95.30;;;;;;6264562;22;20189;-82
2021/08/10 18:16:09;;;;;;;5.70;3.57;;;22.80;94.70;;;;;;6288952;22;20399;-82
2021/08/10 18:18:35;;;;;;;8.13;3.93;;;22.60;94.70;;;;;;6289109;22;20569;-83
2021/08/10 18:21:01;;;;;;;4.23;3.57;;;22.40;96.80;;;;;;6288864;22;20445;-83
2021/08/10 18:23:27;;;;;;;4.30;3.90;;;22.10;98.60;;;;;;6263978;22;21105;-82
2021/08/10 18:25:53;;;;;;;5.00;4.27;;;21.90;99.90;;;;;;6289791;22;20396;-82
2021/08/10 18:28:19;;;;;;;5.43;4.73;;;21.60;99.90;;;;;;6286473;22;20161;-85
2021/08/10 18:30:45;;;;;;;7.53;6.93;;;21.40;99.90;;;;;;6285315;22;20197;-81
2021/08/10 18:33:13;;;;;;;8.73;7.93;;;21.20;99.90;;;;;;6260967;22;20776;-81
2021/08/10 18:35:39;;;;;;;10.20;9.10;;;21.10;99.90;;;;;;6289547;22;20444;-80
2021/08/10 18:38:05;;;;;;;5.70;5.20;;;20.90;99.90;;;;;;6261372;22;20416;-81
2021/08/10 18:40:32;;;;;;;5.23;4.47;;;20.80;99.90;;;;;;6288260;22;20983;-81
2021/08/10 18:42:58;;;;;;;4.10;3.80;;;20.80;99.90;;;;;;6286556;22;20161;-81
2021/08/10 18:45:25;;;;;;;3.37;3.07;;;20.80;99.90;;;;;;6289214;22;20400;-81
2021/08/10 18:47:52;;;;;;;5.50;4.63;;;20.70;99.90;;;;;;6288184;22;20462;-81
2021/08/10 18:50:19;;;;;;;4.10;3.50;;;20.60;99.90;;;;;;6290008;22;20384;-81
2021/08/10 18:52:45;;;;;;;4.30;3.30;;;20.50;99.90;;;;;;6261889;22;20411;-82
2021/08/10 18:55:11;;;;;;;5.83;3.87;;;20.60;99.90;;;;;;6287470;22;20870;-81
2021/08/10 18:57:41;;;;;;;3.53;3.20;;;20.60;99.90;;;;;;6290040;22;20870;-81
2021/08/10 19:00:09;;;;;;;5.20;3.10;;;20.70;99.90;;;;;;6282469;22;20392;-81
2021/08/10 19:02:35;;;;;;;4.30;3.27;;;20.70;99.90;;;;;;6264061;22;20399;-81
2021/08/10 19:05:02;;;;;;;3.40;3.03;;;20.70;99.90;;;;;;6261820;22;20481;-81
2021/08/10 19:07:29;;;;;;;3.53;2.80;;;20.60;99.90;;;;;;6261729;22;20463;-81
2021/08/10 19:09:57;;;;;;;3.60;3.23;;;20.60;99.90;;;;;;6260181;22;20400;-81
2021/08/10 19:12:24;;;;;;;3.63;3.27;;;20.60;99.90;;;;;;6288190;22;20703;-81
2021/08/10 19:14:50;;;;;;;3.20;3.00;;;20.50;99.90;;;;;;6287685;22;20443;-81
2021/08/10 19:17:16;;;;;;;3.93;3.43;;;20.40;99.90;;;;;;6287399;22;20471;-80
2021/08/10 19:19:43;;;;;;;4.73;3.23;;;20.30;99.90;;;;;;6287368;22;20168;-80
2021/08/10 19:22:09;;;;;;;3.20;3.00;;;20.20;99.90;;;;;;6281830;22;20173;-81
2021/08/10 19:24:37;;;;;;;4.43;3.57;;;20.20;99.90;;;;;;6287113;22;20392;-81
2021/08/10 19:27:04;;;;;;;4.70;3.20;;;20.10;99.90;;;;;;6288771;22;20384;-82
2021/08/10 19:29:30;;;;;;;4.20;3.53;;;20.00;99.90;;;;;;6258934;22;20445;-82
2021/08/10 19:31:56;;;;;;;4.13;3.40;;;19.90;99.90;;;;;;6288114;22;20396;-82
2021/08/10 19:34:23;;;;;;;4.13;3.60;;;19.80;99.90;;;;;;6285416;22;20211;-83
2021/08/10 19:36:50;;;;;;;5.83;3.90;;;19.70;99.90;;;;;;6287334;22;20479;-82
2021/08/10 19:39:17;;;;;;;3.57;3.30;;;19.60;99.90;;;;;;6286154;22;20467;-84
2021/08/10 19:41:44;;;;;;;5.77;3.60;;;19.50;99.90;;;;;;6211084;22;20169;-82
2021/08/10 19:44:12;;;;;;;3.60;3.30;;;19.30;99.90;;;;;;6260701;22;20875;-84
2021/08/10 19:46:38;;;;;;;3.53;3.23;;;19.10;99.90;;;;;;6287436;22;20780;-84
2021/08/10 19:49:04;;;;;;;3.77;3.47;;;19.00;99.90;;;;;;6285365;22;20396;-84
2021/08/10 19:51:31;;;;;;;4.70;3.63;;;18.90;99.90;;;;;;6262087;22;20166;-84
2021/08/10 19:53:57;;;;;;;4.10;3.47;;;18.80;99.90;;;;;;6288300;22;20455;-83
2021/08/10 19:56:23;;;;;;;4.40;3.50;;;18.80;99.90;;;;;;6288172;22;20463;-82
2021/08/10 19:58:52;;;;;;;5.10;3.70;;;18.80;99.90;;;;;;6287063;22;20165;-83
2021/08/10 20:01:25;;;;;;;4.60;4.20;;;18.90;99.90;;;;;;6257707;22;20286;-84
2021/08/10 20:03:51;;;;;;;5.97;4.30;;;18.90;99.90;;;;;;6287466;22;20412;-83
2021/08/10 20:06:18;;;;;;;4.90;4.50;;;18.90;99.90;;;;;;6289629;22;20832;-84
2021/08/10 20:08:44;;;;;;;4.67;4.13;;;18.90;99.90;;;;;;6235691;22;20226;-82
2021/08/10 20:11:10;;;;;;;6.13;3.73;;;18.80;99.90;;;;;;6289478;22;20392;-83
2021/08/10 20:13:37;;;;;;;5.83;4.37;;;18.70;99.90;;;;;;6289139;22;20170;-83
2021/08/10 20:16:03;;;;;;;3.90;3.60;;;18.60;99.90;;;;;;6287760;22;20197;-83
2021/08/10 20:18:29;;;;;;;4.77;4.37;;;18.50;99.90;;;;;;6289659;22;20388;-83
2021/08/10 20:20:55;;;;;;;5.37;3.73;;;18.50;99.90;;;;;;6290502;22;20919;-84
2021/08/10 20:23:22;;;;;;;4.10;3.70;;;18.50;99.90;;;;;;6238204;22;20173;-86
2021/08/10 20:25:49;;;;;;;6.03;3.90;;;18.50;99.90;;;;;;6291487;22;20167;-84
2021/08/10 20:28:17;;;;;;;4.67;4.27;;;18.60;99.90;;;;;;6290287;22;20935;-84
2021/08/10 20:30:44;;;;;;;3.97;3.67;;;18.50;99.90;;;;;;6292126;22;20630;-84
2021/08/10 20:33:10;;;;;;;5.33;4.37;;;18.60;99.90;;;;;;6289720;22;20729;-83
2021/08/10 20:35:37;;;;;;;5.17;4.57;;;18.50;99.90;;;;;;6289823;22;20216;-85
2021/08/10 20:38:03;;;;;;;4.17;3.70;;;18.50;99.90;;;;;;6291788;22;20399;-84
2021/08/10 20:40:29;;;;;;;4.60;4.20;;;18.40;99.90;;;;;;6240014;22;20391;-84
2021/08/10 20:42:55;;;;;;;5.50;5.00;;;18.30;99.90;;;;;;6290651;22;20471;-84
2021/08/10 20:45:22;;;;;;;5.33;4.33;;;18.20;99.90;;;;;;6289606;22;20184;-84
2021/08/10 20:47:48;;;;;;;5.63;3.90;;;18.10;99.90;;;;;;6289288;22;20499;-83
2021/08/10 20:50:14;;;;;;;4.73;4.00;;;18.00;99.90;;;;;;6263419;22;20517;-83
2021/08/10 20:52:39;;;;;;;6.60;3.63;;;17.90;99.90;;;;;;6290135;22;20514;-84
2021/08/10 20:55:05;;;;;;;5.00;4.30;;;18.00;99.90;;;;;;6290715;22;20288;-83
2021/08/10 20:57:34;;;;;;;4.43;4.03;;;17.90;99.90;;;;;;6265450;22;20210;-83
2021/08/10 21:00:00;;;;;;;5.10;4.60;;;17.90;99.90;;;;;;6263794;22;20431;-83
2021/08/10 21:02:27;;;;;;;4.97;4.50;;;18.00;99.90;;;;;;6265525;22;20869;-83
2021/08/10 21:04:53;;;;;;;5.23;4.13;;;18.10;99.90;;;;;;6291537;22;20165;-83
2021/08/10 21:07:20;;;;;;;5.00;3.97;;;18.20;99.90;;;;;;6290810;22;20392;-83
2021/08/10 21:09:50;;;;;;;6.20;3.77;;;18.20;99.90;;;;;;6238634;22;20567;-83
2021/08/10 21:12:16;;;;;;;4.67;4.23;;;18.10;99.90;;;;;;6290782;22;20396;-83
2021/08/10 21:14:43;;;;;;;4.20;3.80;;;18.00;99.90;;;;;;6290944;22;20446;-83
2021/08/10 21:17:10;;;;;;;4.60;4.20;;;18.00;99.90;;;;;;6264238;22;20170;-83
2021/08/10 21:19:36;;;;;;;3.77;3.47;;;17.90;99.90;;;;;;6258834;22;20476;-83
2021/08/10 21:22:02;;;;;;;4.47;4.07;;;17.90;99.90;;;;;;6291009;22;20467;-83
2021/08/10 21:24:28;;;;;;;3.83;3.60;;;17.70;99.90;;;;;;6289294;22;20630;-83
2021/08/10 21:26:55;;;;;;;4.50;4.10;;;17.70;99.90;;;;;;6290636;22;20400;-83
2021/08/10 21:29:22;;;;;;;4.60;3.50;;;17.80;99.90;;;;;;6265479;22;20197;-83
2021/08/10 21:31:48;;;;;;;4.83;4.43;;;17.70;99.90;;;;;;6263649;22;20466;-83
2021/08/10 21:34:14;;;;;;;4.17;3.77;;;17.70;99.90;;;;;;6289720;22;20435;-83
2021/08/10 21:36:44;;;;;;;3.50;3.20;;;17.60;99.90;;;;;;6292986;22;20378;-83
2021/08/10 21:39:09;;;;;;;4.87;4.40;;;17.50;99.90;;;;;;6290097;22;20462;-83
2021/08/10 21:41:35;;;;;;;5.17;4.67;;;17.40;99.90;;;;;;6264130;22;20479;-83
2021/08/10 21:44:01;;;;;;;5.97;4.77;;;17.30;99.90;;;;;;6291574;22;20169;-84
2021/08/10 21:46:27;;;;;;;5.50;4.43;;;17.30;99.90;;;;;;6265435;22;20219;-84
2021/08/10 21:48:52;;;;;;;4.47;3.83;;;17.20;99.90;;;;;;6289992;22;20244;-84
2021/08/10 21:51:20;;;;;;;6.63;3.63;;;17.10;99.90;;;;;;6290333;22;20210;-84
2021/08/10 21:53:48;;;;;;;5.53;3.97;;;17.10;99.90;;;;;;6290563;22;20208;-83
2021/08/10 21:56:16;;;;;;;4.57;4.17;;;17.10;99.90;;;;;;6289470;22;20419;-84
2021/08/10 21:58:43;;;;;;;5.77;4.33;;;17.00;99.90;;;;;;6291506;22;20392;-84
2021/08/10 22:01:09;;;;;;;5.57;4.03;;;16.90;99.90;;;;;;6291582;22;20404;-84
2021/08/10 22:03:59;;;;;;;4.30;3.90;;;16.90;99.90;;;;;;6285875;22;20384;-84
2021/08/10 22:06:25;;;;;;;4.70;4.30;;;17.00;99.90;;;;;;6259105;22;20486;-84
2021/08/10 22:08:52;;;;;;;5.80;3.80;;;17.10;99.90;;;;;;6292112;22;20384;-84
2021/08/10 22:11:18;;;;;;;8.17;4.87;;;17.10;99.90;;;;;;6289690;22;20399;-83
2021/08/10 22:13:46;;;;;;;5.03;4.53;;;17.00;99.90;;;;;;6288125;22;20161;-83
2021/08/10 22:16:17;;;;;;;4.80;4.30;;;17.10;99.90;;;;;;6212803;22;20439;-83
2021/08/10 22:18:43;;;;;;;5.00;4.60;;;17.00;99.90;;;;;;6290522;22;20396;-83
2021/08/10 22:21:10;;;;;;;8.80;4.97;;;17.00;99.90;;;;;;6291429;22;20491;-83
2021/08/10 22:23:39;;;;;;;5.00;4.50;;;16.90;99.90;;;;;;6255508;22;20411;-83
2021/08/10 22:26:08;;;;;;;4.93;4.53;;;16.90;99.90;;;;;;6291078;22;20388;-83
2021/08/10 22:28:34;;;;;;;3.93;3.63;;;16.90;99.90;;;;;;6262508;22;20391;-83
2021/08/10 22:31:01;;;;;;;5.23;3.93;;;16.80;99.90;;;;;;6287908;22;20595;-84
2021/08/10 22:33:28;;;;;;;7.13;4.00;;;16.70;99.90;;;;;;6291239;22;20223;-84
2021/08/10 22:35:54;;;;;;;4.73;4.27;;;16.50;99.90;;;;;;6288567;22;20649;-83
2021/08/10 22:38:21;;;;;;;4.50;4.10;;;16.40;99.90;;;;;;6237640;22;20165;-83
2021/08/10 22:40:48;;;;;;;7.33;4.27;;;16.40;99.90;;;;;;6289670;22;20400;-84
2021/08/10 22:43:14;;;;;;;6.70;4.40;;;16.40;99.90;;;;;;6290045;22;20392;-84
2021/08/10 22:45:40;;;;;;;4.70;4.10;;;16.50;99.90;;;;;;6290423;22;20582;-84
2021/08/10 22:48:09;;;;;;;4.10;3.73;;;16.60;99.90;;;;;;6289795;22;20169;-83
2021/08/10 22:50:35;;;;;;;4.97;4.40;;;16.60;99.90;;;;;;6289120;22;20525;-84
2021/08/10 22:53:02;;;;;;;5.87;3.97;;;16.60;99.90;;;;;;6263847;22;20824;-83
2021/08/10 22:55:28;;;;;;;4.53;4.13;;;16.70;99.90;;;;;;6231853;22;20647;-83
2021/08/10 22:57:54;;;;;;;4.40;4.00;;;16.60;99.90;;;;;;6264184;22;20627;-83
2021/08/10 23:00:24;;;;;;;4.60;4.07;;;16.60;99.90;;;;;;6291173;22;20392;-83
2021/08/10 23:02:51;;;;;;;5.53;4.30;;;16.50;99.90;;;;;;6237714;22;20784;-83
2021/08/10 23:05:18;;;;;;;6.53;4.30;;;16.50;99.90;;;;;;6257991;22;20438;-83
2021/08/10 23:07:46;;;;;;;6.27;4.80;;;16.50;99.90;;;;;;6284247;22;20507;-82
2021/08/10 23:10:13;;;;;;;8.10;4.97;;;16.50;99.90;;;;;;6235636;22;20721;-83
2021/08/10 23:12:39;;;;;;;5.40;4.90;;;16.50;99.90;;;;;;6260502;22;20449;-84
2021/08/10 23:15:09;;;;;;;5.37;4.87;;;16.50;99.90;;;;;;6262530;22;20448;-84
2021/08/10 23:17:39;;;;;;;5.00;4.50;;;16.50;99.90;;;;;;6237111;22;20845;-83
2021/08/10 23:20:07;;;;;;;4.90;4.40;;;16.50;99.90;;;;;;6261965;22;20400;-83
2021/08/10 23:22:33;;;;;;;4.17;3.87;;;16.50;99.90;;;;;;6261667;22;20396;-83
2021/08/10 23:24:59;;;;;;;5.47;4.40;;;16.50;99.90;;;;;;6288706;22;20741;-83
2021/08/10 23:27:24;;;;;;;5.20;4.23;;;16.40;99.90;;;;;;6287657;22;20323;-83
2021/08/10 23:29:50;;;;;;;7.00;4.30;;;16.30;99.90;;;;;;6287979;22;20547;-86
2021/08/10 23:32:16;;;;;;;6.07;4.40;;;16.30;99.90;;;;;;6288748;22;20193;-83
2021/08/10 23:34:41;;;;;;;6.00;5.10;;;16.20;99.90;;;;;;6289006;22;20229;-83
2021/08/10 23:37:07;;;;;;;4.80;4.30;;;16.10;99.90;;;;;;6290382;22;20162;-83
2021/08/10 23:39:33;;;;;;;5.63;5.00;;;16.10;99.90;;;;;;6289332;22;20193;-83
2021/08/10 23:41:58;;;;;;;5.30;4.40;;;16.10;99.90;;;;;;6292577;22;20162;-84
2021/08/10 23:44:24;;;;;;;4.73;4.20;;;16.20;99.90;;;;;;6289934;22;20161;-83
2021/08/10 23:46:53;;;;;;;4.43;4.03;;;16.20;99.90;;;;;;6292908;22;20632;-84
2021/08/10 23:49:18;;;;;;;4.53;4.13;;;16.20;99.90;;;;;;6290022;22;20168;-83
2021/08/10 23:51:44;;;;;;;4.80;4.37;;;16.20;99.90;;;;;;6291097;22;20396;-83
2021/08/10 23:54:11;;;;;;;5.93;4.43;;;16.20;99.90;;;;;;6292582;22;20181;-83
2021/08/10 23:56:38;;;;;;;4.70;4.30;;;16.20;99.90;;;;;;6288876;22;20400;-84
2021/08/10 23:59:04;;;;;;;4.83;4.43;;;16.00;99.90;;;;;;6241518;22;20170;-84
